sensor_id;sensor_type;location;lat;lon;timestamp;temperature;humidity
70986;DHT22;58645;43.068;25.610;2023-09-30T00:00:52;15.20;84.60
70986;DHT22;58645;43.068;25.610;2023-09-30T00:03:18;15.10;85.00
70986;DHT22;58645;43.068;25.610;2023-09-30T00:05:44;15.10;85.00
70986;DHT22;58645;43.068;25.610;2023-09-30T00:08:09;15.20;85.00
70986;DHT22;58645;43.068;25.610;2023-09-30T00:10:36;15.10;84.40
70986;DHT22;58645;43.068;25.610;2023-09-30T00:13:02;15.10;84.20
70986;DHT22;58645;43.068;25.610;2023-09-30T00:15:28;15.10;84.20
70986;DHT22;58645;43.068;25.610;2023-09-30T00:17:53;15.00;84.60
70986;DHT22;58645;43.068;25.610;2023-09-30T00:20:19;14.90;84.90
70986;DHT22;58645;43.068;25.610;2023-09-30T00:22:45;14.90;85.20
70986;DHT22;58645;43.068;25.610;2023-09-30T00:25:11;14.80;85.50
70986;DHT22;58645;43.068;25.610;2023-09-30T00:27:36;14.80;85.90
70986;DHT22;58645;43.068;25.610;2023-09-30T00:30:03;14.70;86.30
70986;DHT22;58645;43.068;25.610;2023-09-30T00:32:29;14.70;86.80
70986;DHT22;58645;43.068;25.610;2023-09-30T00:34:55;14.70;87.00
70986;DHT22;58645;43.068;25.610;2023-09-30T00:37:21;14.60;87.00
70986;DHT22;58645;43.068;25.610;2023-09-30T00:39:46;14.60;87.50
70986;DHT22;58645;43.068;25.610;2023-09-30T00:42:12;14.60;87.90
70986;DHT22;58645;43.068;25.610;2023-09-30T00:44:38;14.60;88.00
70986;DHT22;58645;43.068;25.610;2023-09-30T00:47:04;14.60;88.40
70986;DHT22;58645;43.068;25.610;2023-09-30T00:49:30;14.60;88.70
70986;DHT22;58645;43.068;25.610;2023-09-30T00:51:56;14.60;89.10
70986;DHT22;58645;43.068;25.610;2023-09-30T00:54:24;14.60;89.10
70986;DHT22;58645;43.068;25.610;2023-09-30T00:56:51;14.60;89.70
70986;DHT22;58645;43.068;25.610;2023-09-30T00:59:18;14.50;90.00
70986;DHT22;58645;43.068;25.610;2023-09-30T01:01:45;14.50;90.60
70986;DHT22;58645;43.068;25.610;2023-09-30T01:04:12;14.50;90.80
70986;DHT22;58645;43.068;25.610;2023-09-30T01:06:38;14.40;91.10
70986;DHT22;58645;43.068;25.610;2023-09-30T01:09:04;14.40;91.60
70986;DHT22;58645;43.068;25.610;2023-09-30T01:11:30;14.40;92.20
70986;DHT22;58645;43.068;25.610;2023-09-30T01:13:56;14.30;92.60
70986;DHT22;58645;43.068;25.610;2023-09-30T01:16:22;14.40;92.90
70986;DHT22;58645;43.068;25.610;2023-09-30T01:18:49;14.40;93.30
70986;DHT22;58645;43.068;25.610;2023-09-30T01:21:14;14.40;93.50
70986;DHT22;58645;43.068;25.610;2023-09-30T01:23:40;14.40;94.20
70986;DHT22;58645;43.068;25.610;2023-09-30T01:26:11;14.30;94.40
70986;DHT22;58645;43.068;25.610;2023-09-30T01:28:40;14.20;96.10
70986;DHT22;58645;43.068;25.610;2023-09-30T01:31:06;14.20;97.50
70986;DHT22;58645;43.068;25.610;2023-09-30T01:33:32;14.20;98.80
70986;DHT22;58645;43.068;25.610;2023-09-30T01:35:58;14.10;99.90
70986;DHT22;58645;43.068;25.610;2023-09-30T01:38:25;14.10;99.90
70986;DHT22;58645;43.068;25.610;2023-09-30T01:40:51;14.10;99.90
70986;DHT22;58645;43.068;25.610;2023-09-30T01:43:17;14.10;99.90
70986;DHT22;58645;43.068;25.610;2023-09-30T01:45:43;14.10;99.90
70986;DHT22;58645;43.068;25.610;2023-09-30T01:48:10;14.10;99.90
70986;DHT22;58645;43.068;25.610;2023-09-30T01:50:36;14.00;99.90
70986;DHT22;58645;43.068;25.610;2023-09-30T01:53:03;14.00;99.90
70986;DHT22;58645;43.068;25.610;2023-09-30T01:55:30;14.00;99.90
70986;DHT22;58645;43.068;25.610;2023-09-30T01:57:55;14.00;99.90
70986;DHT22;58645;43.068;25.610;2023-09-30T02:00:21;14.00;99.90
70986;DHT22;58645;43.068;25.610;2023-09-30T02:02:47;13.90;99.90
70986;DHT22;58645;43.068;25.610;2023-09-30T02:05:12;13.90;99.90
70986;DHT22;58645;43.068;25.610;2023-09-30T02:07:38;13.90;99.90
70986;DHT22;58645;43.068;25.610;2023-09-30T02:10:05;13.80;99.90
70986;DHT22;58645;43.068;25.610;2023-09-30T02:12:30;13.80;99.90
70986;DHT22;58645;43.068;25.610;2023-09-30T02:14:58;13.80;99.90
70986;DHT22;58645;43.068;25.610;2023-09-30T02:17:24;13.80;99.90
70986;DHT22;58645;43.068;25.610;2023-09-30T02:19:49;13.70;99.90
70986;DHT22;58645;43.068;25.610;2023-09-30T02:22:15;13.80;99.90
70986;DHT22;58645;43.068;25.610;2023-09-30T02:24:41;13.80;99.90
70986;DHT22;58645;43.068;25.610;2023-09-30T02:27:07;13.80;99.90
70986;DHT22;58645;43.068;25.610;2023-09-30T02:29:33;13.80;99.90
70986;DHT22;58645;43.068;25.610;2023-09-30T02:31:59;13.70;99.90
70986;DHT22;58645;43.068;25.610;2023-09-30T02:34:25;13.70;99.90
70986;DHT22;58645;43.068;25.610;2023-09-30T02:36:51;13.70;99.90
70986;DHT22;58645;43.068;25.610;2023-09-30T02:39:17;13.70;99.90
70986;DHT22;58645;43.068;25.610;2023-09-30T02:41:43;13.60;99.90
70986;DHT22;58645;43.068;25.610;2023-09-30T02:44:09;13.60;99.90
70986;DHT22;58645;43.068;25.610;2023-09-30T02:46:34;13.50;99.90
70986;DHT22;58645;43.068;25.610;2023-09-30T02:49:03;13.40;99.90
70986;DHT22;58645;43.068;25.610;2023-09-30T02:51:29;13.40;99.90
70986;DHT22;58645;43.068;25.610;2023-09-30T02:53:56;13.40;99.90
70986;DHT22;58645;43.068;25.610;2023-09-30T02:56:22;13.30;99.90
70986;DHT22;58645;43.068;25.610;2023-09-30T02:58:50;13.30;99.90
70986;DHT22;58645;43.068;25.610;2023-09-30T03:01:17;13.30;99.90
70986;DHT22;58645;43.068;25.610;2023-09-30T03:03:43;13.30;99.90
70986;DHT22;58645;43.068;25.610;2023-09-30T03:06:10;13.20;99.90
70986;DHT22;58645;43.068;25.610;2023-09-30T03:08:36;13.20;99.90
70986;DHT22;58645;43.068;25.610;2023-09-30T03:11:03;13.20;99.90
70986;DHT22;58645;43.068;25.610;2023-09-30T03:13:30;13.10;99.90
70986;DHT22;58645;43.068;25.610;2023-09-30T03:15:56;13.10;99.90
70986;DHT22;58645;43.068;25.610;2023-09-30T03:18:22;13.10;99.90
70986;DHT22;58645;43.068;25.610;2023-09-30T03:20:58;13.10;99.90
70986;DHT22;58645;43.068;25.610;2023-09-30T03:23:26;13.10;99.90
70986;DHT22;58645;43.068;25.610;2023-09-30T03:25:59;13.10;99.90
70986;DHT22;58645;43.068;25.610;2023-09-30T03:28:28;13.10;99.90
70986;DHT22;58645;43.068;25.610;2023-09-30T03:30:54;13.10;99.90
70986;DHT22;58645;43.068;25.610;2023-09-30T03:33:22;13.00;99.90
70986;DHT22;58645;43.068;25.610;2023-09-30T03:35:48;13.00;99.90
70986;DHT22;58645;43.068;25.610;2023-09-30T03:38:13;12.90;99.90
70986;DHT22;58645;43.068;25.610;2023-09-30T03:40:42;12.90;99.90
70986;DHT22;58645;43.068;25.610;2023-09-30T03:43:13;12.90;99.90
70986;DHT22;58645;43.068;25.610;2023-09-30T03:45:40;12.80;99.90
70986;DHT22;58645;43.068;25.610;2023-09-30T03:48:07;12.80;99.90
70986;DHT22;58645;43.068;25.610;2023-09-30T03:50:33;12.70;99.90
70986;DHT22;58645;43.068;25.610;2023-09-30T03:53:05;12.60;99.90
70986;DHT22;58645;43.068;25.610;2023-09-30T03:55:33;12.50;99.90
70986;DHT22;58645;43.068;25.610;2023-09-30T03:57:59;12.50;99.90
70986;DHT22;58645;43.068;25.610;2023-09-30T04:00:25;12.40;99.90
70986;DHT22;58645;43.068;25.610;2023-09-30T04:02:51;12.30;99.90
70986;DHT22;58645;43.068;25.610;2023-09-30T04:05:21;12.30;99.90
70986;DHT22;58645;43.068;25.610;2023-09-30T04:07:59;12.30;99.90
70986;DHT22;58645;43.068;25.610;2023-09-30T04:10:25;12.20;99.90
70986;DHT22;58645;43.068;25.610;2023-09-30T04:12:51;12.20;99.90
70986;DHT22;58645;43.068;25.610;2023-09-30T04:15:17;12.20;99.90
70986;DHT22;58645;43.068;25.610;2023-09-30T04:17:44;12.10;99.90
70986;DHT22;58645;43.068;25.610;2023-09-30T04:20:09;12.10;99.90
70986;DHT22;58645;43.068;25.610;2023-09-30T04:22:37;12.10;99.90
70986;DHT22;58645;43.068;25.610;2023-09-30T04:25:03;12.10;99.90
70986;DHT22;58645;43.068;25.610;2023-09-30T04:27:34;12.10;99.90
70986;DHT22;58645;43.068;25.610;2023-09-30T04:30:01;12.20;99.90
70986;DHT22;58645;43.068;25.610;2023-09-30T04:32:33;12.20;99.90
70986;DHT22;58645;43.068;25.610;2023-09-30T04:34:59;12.30;99.90
70986;DHT22;58645;43.068;25.610;2023-09-30T04:37:25;12.40;99.90
70986;DHT22;58645;43.068;25.610;2023-09-30T04:39:51;12.40;99.90
70986;DHT22;58645;43.068;25.610;2023-09-30T04:42:18;12.50;99.90
70986;DHT22;58645;43.068;25.610;2023-09-30T04:44:44;12.50;99.90
70986;DHT22;58645;43.068;25.610;2023-09-30T04:47:09;12.60;99.90
70986;DHT22;58645;43.068;25.610;2023-09-30T04:49:35;12.70;99.90
70986;DHT22;58645;43.068;25.610;2023-09-30T04:52:01;12.70;99.90
70986;DHT22;58645;43.068;25.610;2023-09-30T04:54:26;12.80;99.90
70986;DHT22;58645;43.068;25.610;2023-09-30T04:56:54;12.90;99.90
70986;DHT22;58645;43.068;25.610;2023-09-30T04:59:20;13.00;99.90
70986;DHT22;58645;43.068;25.610;2023-09-30T05:01:47;13.00;99.90
70986;DHT22;58645;43.068;25.610;2023-09-30T05:04:13;13.10;99.90
70986;DHT22;58645;43.068;25.610;2023-09-30T05:06:39;13.20;99.90
70986;DHT22;58645;43.068;25.610;2023-09-30T05:09:04;13.40;99.90
70986;DHT22;58645;43.068;25.610;2023-09-30T05:11:32;13.60;99.90
70986;DHT22;58645;43.068;25.610;2023-09-30T05:13:58;13.90;99.90
70986;DHT22;58645;43.068;25.610;2023-09-30T05:16:24;14.70;99.90
70986;DHT22;58645;43.068;25.610;2023-09-30T05:18:52;15.60;99.90
70986;DHT22;58645;43.068;25.610;2023-09-30T05:21:18;16.20;99.90
70986;DHT22;58645;43.068;25.610;2023-09-30T05:23:44;16.60;99.90
70986;DHT22;58645;43.068;25.610;2023-09-30T05:26:09;17.30;99.00
70986;DHT22;58645;43.068;25.610;2023-09-30T05:28:35;17.80;95.80
70986;DHT22;58645;43.068;25.610;2023-09-30T05:31:01;18.30;91.80
70986;DHT22;58645;43.068;25.610;2023-09-30T05:33:28;18.50;88.90
70986;DHT22;58645;43.068;25.610;2023-09-30T05:35:53;18.70;86.00
70986;DHT22;58645;43.068;25.610;2023-09-30T05:38:20;19.00;84.70
70986;DHT22;58645;43.068;25.610;2023-09-30T05:40:46;19.70;82.30
70986;DHT22;58645;43.068;25.610;2023-09-30T05:43:12;19.70;79.50
70986;DHT22;58645;43.068;25.610;2023-09-30T05:45:39;20.10;78.60
70986;DHT22;58645;43.068;25.610;2023-09-30T05:48:15;20.30;76.50
70986;DHT22;58645;43.068;25.610;2023-09-30T05:50:41;19.90;76.20
70986;DHT22;58645;43.068;25.610;2023-09-30T05:53:08;19.10;78.60
70986;DHT22;58645;43.068;25.610;2023-09-30T05:55:35;18.50;81.50
70986;DHT22;58645;43.068;25.610;2023-09-30T05:58:02;18.00;82.70
70986;DHT22;58645;43.068;25.610;2023-09-30T06:00:28;17.60;84.40
70986;DHT22;58645;43.068;25.610;2023-09-30T06:02:56;17.20;85.80
70986;DHT22;58645;43.068;25.610;2023-09-30T06:05:22;17.00;86.70
70986;DHT22;58645;43.068;25.610;2023-09-30T06:07:49;16.70;88.40
70986;DHT22;58645;43.068;25.610;2023-09-30T06:10:15;16.60;89.10
70986;DHT22;58645;43.068;25.610;2023-09-30T06:12:52;17.00;88.80
70986;DHT22;58645;43.068;25.610;2023-09-30T06:15:20;17.10;87.90
70986;DHT22;58645;43.068;25.610;2023-09-30T06:17:55;17.80;86.40
70986;DHT22;58645;43.068;25.610;2023-09-30T06:20:22;18.80;82.60
70986;DHT22;58645;43.068;25.610;2023-09-30T06:22:48;19.00;80.70
70986;DHT22;58645;43.068;25.610;2023-09-30T06:25:20;19.60;77.90
70986;DHT22;58645;43.068;25.610;2023-09-30T06:27:47;20.40;75.10
70986;DHT22;58645;43.068;25.610;2023-09-30T06:30:15;21.00;72.80
70986;DHT22;58645;43.068;25.610;2023-09-30T06:32:45;21.70;69.90
70986;DHT22;58645;43.068;25.610;2023-09-30T06:35:11;22.30;67.00
70986;DHT22;58645;43.068;25.610;2023-09-30T06:37:38;22.80;64.70
70986;DHT22;58645;43.068;25.610;2023-09-30T06:40:09;22.90;63.50
70986;DHT22;58645;43.068;25.610;2023-09-30T06:42:37;23.20;61.60
70986;DHT22;58645;43.068;25.610;2023-09-30T06:45:02;23.80;60.20
70986;DHT22;58645;43.068;25.610;2023-09-30T06:47:35;24.30;58.70
70986;DHT22;58645;43.068;25.610;2023-09-30T06:50:02;24.60;57.30
70986;DHT22;58645;43.068;25.610;2023-09-30T06:52:34;25.10;55.90
70986;DHT22;58645;43.068;25.610;2023-09-30T06:55:01;25.60;53.70
70986;DHT22;58645;43.068;25.610;2023-09-30T06:57:27;26.20;52.70
70986;DHT22;58645;43.068;25.610;2023-09-30T06:59:53;27.20;50.70
70986;DHT22;58645;43.068;25.610;2023-09-30T07:02:19;27.90;48.60
70986;DHT22;58645;43.068;25.610;2023-09-30T07:04:44;28.20;46.70
70986;DHT22;58645;43.068;25.610;2023-09-30T07:07:10;28.40;45.70
70986;DHT22;58645;43.068;25.610;2023-09-30T07:09:36;28.60;45.10
70986;DHT22;58645;43.068;25.610;2023-09-30T07:12:02;28.40;45.40
70986;DHT22;58645;43.068;25.610;2023-09-30T07:14:27;27.70;46.90
70986;DHT22;58645;43.068;25.610;2023-09-30T07:16:53;27.40;49.20
70986;DHT22;58645;43.068;25.610;2023-09-30T07:19:20;27.90;46.90
70986;DHT22;58645;43.068;25.610;2023-09-30T07:21:45;28.40;44.80
70986;DHT22;58645;43.068;25.610;2023-09-30T07:24:12;29.10;43.70
70986;DHT22;58645;43.068;25.610;2023-09-30T07:26:37;29.90;42.60
70986;DHT22;58645;43.068;25.610;2023-09-30T07:29:03;30.30;41.70
70986;DHT22;58645;43.068;25.610;2023-09-30T07:31:34;30.90;40.50
70986;DHT22;58645;43.068;25.610;2023-09-30T07:34:00;30.80;40.00
70986;DHT22;58645;43.068;25.610;2023-09-30T07:36:25;30.60;39.60
70986;DHT22;58645;43.068;25.610;2023-09-30T07:38:51;30.00;40.90
70986;DHT22;58645;43.068;25.610;2023-09-30T07:41:18;29.00;42.50
70986;DHT22;58645;43.068;25.610;2023-09-30T07:43:44;28.50;44.00
70986;DHT22;58645;43.068;25.610;2023-09-30T07:46:09;28.10;45.20
70986;DHT22;58645;43.068;25.610;2023-09-30T07:48:35;27.60;45.70
70986;DHT22;58645;43.068;25.610;2023-09-30T07:51:01;27.20;47.30
70986;DHT22;58645;43.068;25.610;2023-09-30T07:53:28;26.60;47.60
70986;DHT22;58645;43.068;25.610;2023-09-30T07:55:54;26.10;49.30
70986;DHT22;58645;43.068;25.610;2023-09-30T07:58:20;26.00;49.80
70986;DHT22;58645;43.068;25.610;2023-09-30T08:00:46;25.90;49.50
70986;DHT22;58645;43.068;25.610;2023-09-30T08:03:11;26.80;47.60
70986;DHT22;58645;43.068;25.610;2023-09-30T08:05:38;26.70;46.90
70986;DHT22;58645;43.068;25.610;2023-09-30T08:08:04;26.70;47.00
70986;DHT22;58645;43.068;25.610;2023-09-30T08:10:30;27.50;46.90
70986;DHT22;58645;43.068;25.610;2023-09-30T08:12:57;29.10;43.20
70986;DHT22;58645;43.068;25.610;2023-09-30T08:15:24;30.30;40.90
70986;DHT22;58645;43.068;25.610;2023-09-30T08:17:50;30.80;39.00
70986;DHT22;58645;43.068;25.610;2023-09-30T08:20:16;31.20;37.60
70986;DHT22;58645;43.068;25.610;2023-09-30T08:22:42;31.60;36.70
70986;DHT22;58645;43.068;25.610;2023-09-30T08:25:08;32.20;36.30
70986;DHT22;58645;43.068;25.610;2023-09-30T08:27:35;33.00;34.60
70986;DHT22;58645;43.068;25.610;2023-09-30T08:30:01;33.70;33.70
70986;DHT22;58645;43.068;25.610;2023-09-30T08:32:33;33.20;32.30
70986;DHT22;58645;43.068;25.610;2023-09-30T08:34:58;33.80;32.00
70986;DHT22;58645;43.068;25.610;2023-09-30T08:37:24;33.50;31.40
70986;DHT22;58645;43.068;25.610;2023-09-30T08:39:50;33.00;32.90
70986;DHT22;58645;43.068;25.610;2023-09-30T08:42:16;33.10;32.30
70986;DHT22;58645;43.068;25.610;2023-09-30T08:44:44;32.10;32.70
70986;DHT22;58645;43.068;25.610;2023-09-30T08:47:10;31.00;33.70
70986;DHT22;58645;43.068;25.610;2023-09-30T08:49:41;30.60;33.70
70986;DHT22;58645;43.068;25.610;2023-09-30T08:52:10;30.10;34.80
70986;DHT22;58645;43.068;25.610;2023-09-30T08:54:36;30.90;35.70
70986;DHT22;58645;43.068;25.610;2023-09-30T08:57:03;31.90;33.10
70986;DHT22;58645;43.068;25.610;2023-09-30T08:59:31;32.70;31.70
70986;DHT22;58645;43.068;25.610;2023-09-30T09:01:57;33.20;31.30
70986;DHT22;58645;43.068;25.610;2023-09-30T09:04:24;33.90;29.90
70986;DHT22;58645;43.068;25.610;2023-09-30T09:06:50;34.70;28.60
70986;DHT22;58645;43.068;25.610;2023-09-30T09:09:17;35.40;28.90
70986;DHT22;58645;43.068;25.610;2023-09-30T09:11:45;34.90;28.40
70986;DHT22;58645;43.068;25.610;2023-09-30T09:14:10;34.30;28.90
70986;DHT22;58645;43.068;25.610;2023-09-30T09:16:36;33.60;29.40
70986;DHT22;58645;43.068;25.610;2023-09-30T09:19:14;33.60;30.20
70986;DHT22;58645;43.068;25.610;2023-09-30T09:21:57;34.40;29.00
70986;DHT22;58645;43.068;25.610;2023-09-30T09:24:30;35.10;27.00
70986;DHT22;58645;43.068;25.610;2023-09-30T09:27:11;35.60;27.20
70986;DHT22;58645;43.068;25.610;2023-09-30T09:29:38;36.00;26.30
70986;DHT22;58645;43.068;25.610;2023-09-30T09:32:12;36.10;25.90
70986;DHT22;58645;43.068;25.610;2023-09-30T09:34:42;36.20;25.10
70986;DHT22;58645;43.068;25.610;2023-09-30T09:37:17;36.00;25.10
70986;DHT22;58645;43.068;25.610;2023-09-30T09:39:54;36.40;23.80
70986;DHT22;58645;43.068;25.610;2023-09-30T09:42:31;36.40;24.40
70986;DHT22;58645;43.068;25.610;2023-09-30T09:45:04;36.70;23.60
70986;DHT22;58645;43.068;25.610;2023-09-30T09:47:32;36.40;23.50
70986;DHT22;58645;43.068;25.610;2023-09-30T09:49:58;36.40;24.20
70986;DHT22;58645;43.068;25.610;2023-09-30T09:52:25;35.90;23.60
70986;DHT22;58645;43.068;25.610;2023-09-30T09:54:52;35.00;24.60
70986;DHT22;58645;43.068;25.610;2023-09-30T09:57:19;35.00;25.50
70986;DHT22;58645;43.068;25.610;2023-09-30T09:59:45;34.60;25.00
70986;DHT22;58645;43.068;25.610;2023-09-30T10:02:15;34.50;25.60
70986;DHT22;58645;43.068;25.610;2023-09-30T10:04:46;35.00;25.20
70986;DHT22;58645;43.068;25.610;2023-09-30T10:07:28;34.60;25.30
70986;DHT22;58645;43.068;25.610;2023-09-30T10:09:56;34.20;27.40
70986;DHT22;58645;43.068;25.610;2023-09-30T10:12:25;35.00;25.60
70986;DHT22;58645;43.068;25.610;2023-09-30T10:14:52;35.70;23.80
70986;DHT22;58645;43.068;25.610;2023-09-30T10:17:18;36.00;23.40
70986;DHT22;58645;43.068;25.610;2023-09-30T10:20:06;36.30;23.30
70986;DHT22;58645;43.068;25.610;2023-09-30T10:22:32;36.60;22.80
70986;DHT22;58645;43.068;25.610;2023-09-30T10:24:59;37.00;22.30
70986;DHT22;58645;43.068;25.610;2023-09-30T10:40:51;37.20;21.40
70986;DHT22;58645;43.068;25.610;2023-09-30T10:43:33;37.30;21.30
70986;DHT22;58645;43.068;25.610;2023-09-30T10:45:59;37.40;21.30
70986;DHT22;58645;43.068;25.610;2023-09-30T10:50:56;37.10;21.90
70986;DHT22;58645;43.068;25.610;2023-09-30T10:53:25;37.30;21.10
70986;DHT22;58645;43.068;25.610;2023-09-30T10:55:59;36.80;21.30
70986;DHT22;58645;43.068;25.610;2023-09-30T11:01:08;36.90;21.60
70986;DHT22;58645;43.068;25.610;2023-09-30T11:03:34;36.60;21.10
70986;DHT22;58645;43.068;25.610;2023-09-30T11:05:59;36.70;21.50
70986;DHT22;58645;43.068;25.610;2023-09-30T11:08:28;36.50;21.30
70986;DHT22;58645;43.068;25.610;2023-09-30T11:10:54;36.60;21.20
70986;DHT22;58645;43.068;25.610;2023-09-30T11:13:20;36.20;22.20
70986;DHT22;58645;43.068;25.610;2023-09-30T11:15:46;36.60;20.70
70986;DHT22;58645;43.068;25.610;2023-09-30T11:18:17;36.50;20.60
70986;DHT22;58645;43.068;25.610;2023-09-30T11:20:43;36.60;21.40
70986;DHT22;58645;43.068;25.610;2023-09-30T11:23:13;36.60;20.90
70986;DHT22;58645;43.068;25.610;2023-09-30T11:25:40;36.50;20.60
70986;DHT22;58645;43.068;25.610;2023-09-30T11:28:14;36.70;20.20
70986;DHT22;58645;43.068;25.610;2023-09-30T11:31:00;36.40;21.10
70986;DHT22;58645;43.068;25.610;2023-09-30T11:33:27;35.80;21.40
70986;DHT22;58645;43.068;25.610;2023-09-30T11:36:04;35.00;22.80
70986;DHT22;58645;43.068;25.610;2023-09-30T11:38:32;33.80;22.80
70986;DHT22;58645;43.068;25.610;2023-09-30T11:40:59;33.00;24.40
70986;DHT22;58645;43.068;25.610;2023-09-30T11:43:28;32.50;25.30
70986;DHT22;58645;43.068;25.610;2023-09-30T11:46:07;32.00;25.20
70986;DHT22;58645;43.068;25.610;2023-09-30T11:48:34;31.50;25.50
70986;DHT22;58645;43.068;25.610;2023-09-30T11:51:01;31.10;26.70
70986;DHT22;58645;43.068;25.610;2023-09-30T11:53:31;30.60;27.20
70986;DHT22;58645;43.068;25.610;2023-09-30T11:55:59;30.20;28.50
70986;DHT22;58645;43.068;25.610;2023-09-30T11:58:28;30.30;28.20
70986;DHT22;58645;43.068;25.610;2023-09-30T12:01:00;30.20;28.00
70986;DHT22;58645;43.068;25.610;2023-09-30T12:03:26;30.30;28.40
70986;DHT22;58645;43.068;25.610;2023-09-30T12:05:53;30.30;28.10
70986;DHT22;58645;43.068;25.610;2023-09-30T12:08:24;30.60;27.90
70986;DHT22;58645;43.068;25.610;2023-09-30T12:10:50;31.40;27.60
70986;DHT22;58645;43.068;25.610;2023-09-30T12:13:16;32.00;26.00
70986;DHT22;58645;43.068;25.610;2023-09-30T12:15:42;31.80;25.10
70986;DHT22;58645;43.068;25.610;2023-09-30T12:18:09;31.50;25.90
70986;DHT22;58645;43.068;25.610;2023-09-30T12:20:35;30.70;26.90
70986;DHT22;58645;43.068;25.610;2023-09-30T12:23:01;30.30;27.60
70986;DHT22;58645;43.068;25.610;2023-09-30T12:25:27;30.80;27.70
70986;DHT22;58645;43.068;25.610;2023-09-30T12:27:53;31.00;27.10
70986;DHT22;58645;43.068;25.610;2023-09-30T12:30:21;31.00;27.80
70986;DHT22;58645;43.068;25.610;2023-09-30T12:32:47;30.90;26.80
70986;DHT22;58645;43.068;25.610;2023-09-30T12:35:12;30.60;27.10
70986;DHT22;58645;43.068;25.610;2023-09-30T12:37:38;30.40;27.80
70986;DHT22;58645;43.068;25.610;2023-09-30T12:40:07;30.20;28.00
70986;DHT22;58645;43.068;25.610;2023-09-30T12:42:33;30.10;29.00
70986;DHT22;58645;43.068;25.610;2023-09-30T12:45:02;29.90;28.70
70986;DHT22;58645;43.068;25.610;2023-09-30T12:47:28;29.60;28.70
70986;DHT22;58645;43.068;25.610;2023-09-30T12:49:54;29.50;29.40
70986;DHT22;58645;43.068;25.610;2023-09-30T12:52:20;29.30;29.50
70986;DHT22;58645;43.068;25.610;2023-09-30T12:54:46;29.20;29.80
70986;DHT22;58645;43.068;25.610;2023-09-30T12:57:14;29.10;29.90
70986;DHT22;58645;43.068;25.610;2023-09-30T12:59:46;29.10;30.90
70986;DHT22;58645;43.068;25.610;2023-09-30T13:02:12;29.00;30.90
70986;DHT22;58645;43.068;25.610;2023-09-30T13:04:38;28.90;29.80
70986;DHT22;58645;43.068;25.610;2023-09-30T13:07:09;28.80;29.70
70986;DHT22;58645;43.068;25.610;2023-09-30T13:09:36;28.70;30.00
70986;DHT22;58645;43.068;25.610;2023-09-30T13:12:03;28.60;30.50
70986;DHT22;58645;43.068;25.610;2023-09-30T13:14:29;28.60;30.50
70986;DHT22;58645;43.068;25.610;2023-09-30T13:16:55;28.60;30.80
70986;DHT22;58645;43.068;25.610;2023-09-30T13:19:20;28.50;30.40
70986;DHT22;58645;43.068;25.610;2023-09-30T13:21:48;28.40;30.70
70986;DHT22;58645;43.068;25.610;2023-09-30T13:24:14;28.30;31.10
70986;DHT22;58645;43.068;25.610;2023-09-30T13:26:39;28.10;31.30
70986;DHT22;58645;43.068;25.610;2023-09-30T13:29:05;28.00;31.80
70986;DHT22;58645;43.068;25.610;2023-09-30T13:31:31;28.00;32.00
70986;DHT22;58645;43.068;25.610;2023-09-30T13:33:58;27.90;31.50
70986;DHT22;58645;43.068;25.610;2023-09-30T13:36:23;27.80;32.20
70986;DHT22;58645;43.068;25.610;2023-09-30T13:38:49;27.80;32.20
70986;DHT22;58645;43.068;25.610;2023-09-30T13:41:15;27.80;32.10
70986;DHT22;58645;43.068;25.610;2023-09-30T13:43:41;27.70;31.80
70986;DHT22;58645;43.068;25.610;2023-09-30T13:46:07;27.70;32.00
70986;DHT22;58645;43.068;25.610;2023-09-30T13:48:33;27.70;32.00
70986;DHT22;58645;43.068;25.610;2023-09-30T13:51:06;27.70;31.90
70986;DHT22;58645;43.068;25.610;2023-09-30T13:53:32;27.60;32.20
70986;DHT22;58645;43.068;25.610;2023-09-30T13:55:58;27.60;32.50
70986;DHT22;58645;43.068;25.610;2023-09-30T13:58:24;27.50;32.40
70986;DHT22;58645;43.068;25.610;2023-09-30T14:00:52;27.50;32.60
70986;DHT22;58645;43.068;25.610;2023-09-30T14:03:19;27.50;32.70
70986;DHT22;58645;43.068;25.610;2023-09-30T14:05:45;27.40;32.70
70986;DHT22;58645;43.068;25.610;2023-09-30T14:08:12;27.40;32.70
70986;DHT22;58645;43.068;25.610;2023-09-30T14:10:37;27.40;32.90
70986;DHT22;58645;43.068;25.610;2023-09-30T14:13:03;27.40;32.90
70986;DHT22;58645;43.068;25.610;2023-09-30T14:15:30;27.40;32.90
70986;DHT22;58645;43.068;25.610;2023-09-30T14:17:59;27.40;33.20
70986;DHT22;58645;43.068;25.610;2023-09-30T14:20:25;27.30;33.10
70986;DHT22;58645;43.068;25.610;2023-09-30T14:22:51;27.20;33.30
70986;DHT22;58645;43.068;25.610;2023-09-30T14:25:20;27.10;33.70
70986;DHT22;58645;43.068;25.610;2023-09-30T14:27:47;27.10;33.70
70986;DHT22;58645;43.068;25.610;2023-09-30T14:30:14;27.00;33.90
70986;DHT22;58645;43.068;25.610;2023-09-30T14:32:40;26.90;33.60
70986;DHT22;58645;43.068;25.610;2023-09-30T14:35:06;26.90;33.30
70986;DHT22;58645;43.068;25.610;2023-09-30T14:37:32;26.80;33.90
70986;DHT22;58645;43.068;25.610;2023-09-30T14:39:58;26.70;34.20
70986;DHT22;58645;43.068;25.610;2023-09-30T14:42:24;26.70;34.40
70986;DHT22;58645;43.068;25.610;2023-09-30T14:44:49;26.60;34.40
70986;DHT22;58645;43.068;25.610;2023-09-30T14:47:15;26.60;34.40
70986;DHT22;58645;43.068;25.610;2023-09-30T14:49:41;26.50;34.30
70986;DHT22;58645;43.068;25.610;2023-09-30T14:52:07;26.50;34.40
70986;DHT22;58645;43.068;25.610;2023-09-30T14:54:35;26.40;34.60
70986;DHT22;58645;43.068;25.610;2023-09-30T14:57:01;26.30;35.00
70986;DHT22;58645;43.068;25.610;2023-09-30T14:59:27;26.20;35.20
70986;DHT22;58645;43.068;25.610;2023-09-30T15:01:53;26.20;35.60
70986;DHT22;58645;43.068;25.610;2023-09-30T15:04:19;26.10;35.60
70986;DHT22;58645;43.068;25.610;2023-09-30T15:06:44;26.00;36.00
70986;DHT22;58645;43.068;25.610;2023-09-30T15:09:11;26.00;36.30
70986;DHT22;58645;43.068;25.610;2023-09-30T15:11:37;25.90;36.10
70986;DHT22;58645;43.068;25.610;2023-09-30T15:14:03;25.90;36.20
70986;DHT22;58645;43.068;25.610;2023-09-30T15:16:32;25.80;36.30
70986;DHT22;58645;43.068;25.610;2023-09-30T15:18:58;25.70;36.40
70986;DHT22;58645;43.068;25.610;2023-09-30T15:21:24;25.70;36.50
70986;DHT22;58645;43.068;25.610;2023-09-30T15:23:50;25.50;36.90
70986;DHT22;58645;43.068;25.610;2023-09-30T15:26:16;25.50;37.10
70986;DHT22;58645;43.068;25.610;2023-09-30T15:28:41;25.40;37.40
70986;DHT22;58645;43.068;25.610;2023-09-30T15:31:08;25.30;37.50
70986;DHT22;58645;43.068;25.610;2023-09-30T15:33:34;25.30;37.60